sensor_id;sensor_type;location;lat;lon;timestamp;P1;durP1;ratioP1;P2;durP2;ratioP2
53666;SDS011;39568;51.026;5.468;2023-06-22T00:00:58;24.42;;;6.78;;
53666;SDS011;39568;51.026;5.468;2023-06-22T00:03:26;19.85;;;7.22;;
53666;SDS011;39568;51.026;5.468;2023-06-22T00:05:53;25.58;;;7.90;;
53666;SDS011;39568;51.026;5.468;2023-06-22T00:08:23;35.67;;;7.38;;
53666;SDS011;39568;51.026;5.468;2023-06-22T00:10:53;31.67;;;8.13;;
53666;SDS011;39568;51.026;5.468;2023-06-22T00:13:19;28.23;;;8.15;;
53666;SDS011;39568;51.026;5.468;2023-06-22T00:15:46;38.97;;;9.07;;
53666;SDS011;39568;51.026;5.468;2023-06-22T00:18:14;33.22;;;8.52;;
53666;SDS011;39568;51.026;5.468;2023-06-22T00:20:41;30.77;;;8.30;;
53666;SDS011;39568;51.026;5.468;2023-06-22T00:23:10;30.90;;;8.82;;
53666;SDS011;39568;51.026;5.468;2023-06-22T00:25:38;51.50;;;9.82;;
53666;SDS011;39568;51.026;5.468;2023-06-22T00:28:05;31.17;;;10.43;;
53666;SDS011;39568;51.026;5.468;2023-06-22T00:30:34;48.15;;;11.82;;
53666;SDS011;39568;51.026;5.468;2023-06-22T00:33:04;48.92;;;12.75;;
53666;SDS011;39568;51.026;5.468;2023-06-22T00:35:32;62.65;;;13.30;;
53666;SDS011;39568;51.026;5.468;2023-06-22T00:38:00;62.58;;;15.38;;
53666;SDS011;39568;51.026;5.468;2023-06-22T00:40:29;65.07;;;15.98;;
53666;SDS011;39568;51.026;5.468;2023-06-22T00:42:58;76.70;;;17.80;;
53666;SDS011;39568;51.026;5.468;2023-06-22T00:45:30;89.22;;;18.75;;
53666;SDS011;39568;51.026;5.468;2023-06-22T00:47:57;83.32;;;17.92;;
53666;SDS011;39568;51.026;5.468;2023-06-22T00:50:25;73.03;;;16.35;;
53666;SDS011;39568;51.026;5.468;2023-06-22T00:52:53;90.55;;;16.60;;
53666;SDS011;39568;51.026;5.468;2023-06-22T00:55:23;67.25;;;15.52;;
53666;SDS011;39568;51.026;5.468;2023-06-22T00:57:51;81.90;;;19.02;;
53666;SDS011;39568;51.026;5.468;2023-06-22T01:00:22;72.93;;;15.93;;
53666;SDS011;39568;51.026;5.468;2023-06-22T01:02:49;86.88;;;17.23;;
53666;SDS011;39568;51.026;5.468;2023-06-22T01:05:18;84.10;;;16.80;;
53666;SDS011;39568;51.026;5.468;2023-06-22T01:07:48;74.57;;;15.00;;
53666;SDS011;39568;51.026;5.468;2023-06-22T01:10:27;58.42;;;13.68;;
53666;SDS011;39568;51.026;5.468;2023-06-22T01:13:02;58.00;;;13.35;;
53666;SDS011;39568;51.026;5.468;2023-06-22T01:15:34;68.90;;;14.00;;
53666;SDS011;39568;51.026;5.468;2023-06-22T01:18:03;59.65;;;13.15;;
53666;SDS011;39568;51.026;5.468;2023-06-22T01:20:36;44.40;;;11.25;;
53666;SDS011;39568;51.026;5.468;2023-06-22T01:23:09;54.88;;;12.07;;
53666;SDS011;39568;51.026;5.468;2023-06-22T01:25:43;51.38;;;11.07;;
53666;SDS011;39568;51.026;5.468;2023-06-22T01:28:17;53.05;;;12.30;;
53666;SDS011;39568;51.026;5.468;2023-06-22T01:30:52;42.00;;;11.25;;
53666;SDS011;39568;51.026;5.468;2023-06-22T01:33:31;45.03;;;11.55;;
53666;SDS011;39568;51.026;5.468;2023-06-22T01:36:01;40.30;;;11.23;;
53666;SDS011;39568;51.026;5.468;2023-06-22T01:38:34;47.42;;;11.63;;
53666;SDS011;39568;51.026;5.468;2023-06-22T01:41:01;46.60;;;10.73;;
53666;SDS011;39568;51.026;5.468;2023-06-22T01:43:31;36.38;;;10.32;;
53666;SDS011;39568;51.026;5.468;2023-06-22T01:46:01;39.63;;;11.50;;
53666;SDS011;39568;51.026;5.468;2023-06-22T01:48:39;40.65;;;13.07;;
53666;SDS011;39568;51.026;5.468;2023-06-22T01:51:06;29.50;;;10.13;;
53666;SDS011;39568;51.026;5.468;2023-06-22T01:53:33;35.20;;;10.00;;
53666;SDS011;39568;51.026;5.468;2023-06-22T01:56:00;36.30;;;10.73;;
53666;SDS011;39568;51.026;5.468;2023-06-22T01:58:29;22.20;;;10.57;;
53666;SDS011;39568;51.026;5.468;2023-06-22T02:01:00;27.48;;;11.73;;
53666;SDS011;39568;51.026;5.468;2023-06-22T02:03:36;29.52;;;11.23;;
53666;SDS011;39568;51.026;5.468;2023-06-22T02:06:10;25.13;;;10.93;;
53666;SDS011;39568;51.026;5.468;2023-06-22T02:08:45;31.40;;;11.88;;
53666;SDS011;39568;51.026;5.468;2023-06-22T02:11:16;22.00;;;10.18;;
53666;SDS011;39568;51.026;5.468;2023-06-22T02:13:46;28.15;;;11.88;;
53666;SDS011;39568;51.026;5.468;2023-06-22T02:16:17;23.20;;;11.32;;
53666;SDS011;39568;51.026;5.468;2023-06-22T02:18:47;27.27;;;11.88;;
53666;SDS011;39568;51.026;5.468;2023-06-22T02:21:16;26.00;;;12.68;;
53666;SDS011;39568;51.026;5.468;2023-06-22T02:23:42;26.52;;;12.65;;
53666;SDS011;39568;51.026;5.468;2023-06-22T02:26:09;23.92;;;14.50;;
53666;SDS011;39568;51.026;5.468;2023-06-22T02:28:36;32.63;;;14.23;;
53666;SDS011;39568;51.026;5.468;2023-06-22T02:31:04;26.70;;;14.70;;
53666;SDS011;39568;51.026;5.468;2023-06-22T02:33:38;26.33;;;13.88;;
53666;SDS011;39568;51.026;5.468;2023-06-22T02:36:09;23.90;;;15.25;;
53666;SDS011;39568;51.026;5.468;2023-06-22T02:38:38;22.38;;;14.00;;
53666;SDS011;39568;51.026;5.468;2023-06-22T02:41:13;25.20;;;13.65;;
53666;SDS011;39568;51.026;5.468;2023-06-22T02:43:43;25.23;;;15.38;;
53666;SDS011;39568;51.026;5.468;2023-06-22T02:46:12;23.77;;;15.02;;
53666;SDS011;39568;51.026;5.468;2023-06-22T02:48:41;17.10;;;13.95;;
53666;SDS011;39568;51.026;5.468;2023-06-22T02:51:12;20.30;;;15.10;;
53666;SDS011;39568;51.026;5.468;2023-06-22T02:53:40;26.90;;;15.65;;
53666;SDS011;39568;51.026;5.468;2023-06-22T02:56:09;20.65;;;15.38;;
53666;SDS011;39568;51.026;5.468;2023-06-22T02:58:37;21.63;;;15.68;;
53666;SDS011;39568;51.026;5.468;2023-06-22T03:01:06;22.00;;;15.43;;
53666;SDS011;39568;51.026;5.468;2023-06-22T03:03:40;18.90;;;15.10;;
53666;SDS011;39568;51.026;5.468;2023-06-22T03:06:08;24.58;;;16.80;;
53666;SDS011;39568;51.026;5.468;2023-06-22T03:08:39;31.55;;;18.00;;
53666;SDS011;39568;51.026;5.468;2023-06-22T03:11:06;27.13;;;18.25;;
53666;SDS011;39568;51.026;5.468;2023-06-22T03:13:33;19.80;;;17.10;;
53666;SDS011;39568;51.026;5.468;2023-06-22T03:15:59;20.90;;;16.90;;
53666;SDS011;39568;51.026;5.468;2023-06-22T03:18:26;23.48;;;17.40;;
53666;SDS011;39568;51.026;5.468;2023-06-22T03:20:55;26.70;;;18.23;;
53666;SDS011;39568;51.026;5.468;2023-06-22T03:23:23;28.60;;;18.20;;
53666;SDS011;39568;51.026;5.468;2023-06-22T03:25:50;27.30;;;19.50;;
53666;SDS011;39568;51.026;5.468;2023-06-22T03:28:16;25.73;;;18.95;;
53666;SDS011;39568;51.026;5.468;2023-06-22T03:30:46;21.65;;;19.10;;
53666;SDS011;39568;51.026;5.468;2023-06-22T03:33:13;23.73;;;17.98;;
53666;SDS011;39568;51.026;5.468;2023-06-22T03:35:40;28.40;;;18.58;;
53666;SDS011;39568;51.026;5.468;2023-06-22T03:38:09;21.48;;;16.88;;
53666;SDS011;39568;51.026;5.468;2023-06-22T03:40:36;32.60;;;18.40;;
53666;SDS011;39568;51.026;5.468;2023-06-22T03:43:03;24.38;;;18.23;;
53666;SDS011;39568;51.026;5.468;2023-06-22T03:45:29;24.83;;;18.73;;
53666;SDS011;39568;51.026;5.468;2023-06-22T03:47:57;25.52;;;20.02;;
53666;SDS011;39568;51.026;5.468;2023-06-22T03:50:30;29.40;;;20.10;;
53666;SDS011;39568;51.026;5.468;2023-06-22T03:52:57;25.83;;;19.80;;
53666;SDS011;39568;51.026;5.468;2023-06-22T03:55:25;21.25;;;19.02;;
53666;SDS011;39568;51.026;5.468;2023-06-22T03:57:52;26.23;;;19.15;;
53666;SDS011;39568;51.026;5.468;2023-06-22T04:00:22;26.55;;;19.85;;
53666;SDS011;39568;51.026;5.468;2023-06-22T04:02:50;24.20;;;18.40;;
53666;SDS011;39568;51.026;5.468;2023-06-22T04:05:17;26.90;;;19.63;;
53666;SDS011;39568;51.026;5.468;2023-06-22T04:07:49;25.42;;;19.60;;
53666;SDS011;39568;51.026;5.468;2023-06-22T04:10:18;23.02;;;18.45;;
53666;SDS011;39568;51.026;5.468;2023-06-22T04:12:47;22.58;;;16.85;;
53666;SDS011;39568;51.026;5.468;2023-06-22T04:15:14;25.70;;;19.38;;
53666;SDS011;39568;51.026;5.468;2023-06-22T04:17:41;23.20;;;17.65;;
53666;SDS011;39568;51.026;5.468;2023-06-22T04:20:08;23.25;;;17.75;;
53666;SDS011;39568;51.026;5.468;2023-06-22T04:22:35;21.13;;;18.13;;
53666;SDS011;39568;51.026;5.468;2023-06-22T04:25:01;21.77;;;16.27;;
53666;SDS011;39568;51.026;5.468;2023-06-22T04:27:28;24.90;;;17.75;;
53666;SDS011;39568;51.026;5.468;2023-06-22T04:30:04;24.40;;;16.58;;
53666;SDS011;39568;51.026;5.468;2023-06-22T04:32:32;22.03;;;17.10;;
53666;SDS011;39568;51.026;5.468;2023-06-22T04:35:01;27.63;;;17.23;;
53666;SDS011;39568;51.026;5.468;2023-06-22T04:37:29;23.88;;;16.40;;
53666;SDS011;39568;51.026;5.468;2023-06-22T04:39:56;27.95;;;18.50;;
53666;SDS011;39568;51.026;5.468;2023-06-22T04:42:23;21.75;;;17.63;;
53666;SDS011;39568;51.026;5.468;2023-06-22T04:44:50;21.77;;;18.42;;
53666;SDS011;39568;51.026;5.468;2023-06-22T04:47:22;25.00;;;18.65;;
53666;SDS011;39568;51.026;5.468;2023-06-22T04:49:55;27.02;;;19.48;;
53666;SDS011;39568;51.026;5.468;2023-06-22T04:52:21;21.10;;;18.52;;
53666;SDS011;39568;51.026;5.468;2023-06-22T04:54:50;23.65;;;19.10;;
53666;SDS011;39568;51.026;5.468;2023-06-22T04:57:20;24.73;;;19.10;;
53666;SDS011;39568;51.026;5.468;2023-06-22T04:59:58;26.30;;;17.85;;
53666;SDS011;39568;51.026;5.468;2023-06-22T05:02:44;22.83;;;17.95;;
53666;SDS011;39568;51.026;5.468;2023-06-22T05:05:11;18.92;;;15.60;;
53666;SDS011;39568;51.026;5.468;2023-06-22T05:07:40;20.73;;;17.60;;
53666;SDS011;39568;51.026;5.468;2023-06-22T05:10:10;24.23;;;17.58;;
53666;SDS011;39568;51.026;5.468;2023-06-22T05:12:39;23.95;;;18.15;;
53666;SDS011;39568;51.026;5.468;2023-06-22T05:15:09;27.37;;;18.97;;
53666;SDS011;39568;51.026;5.468;2023-06-22T05:17:37;27.27;;;18.75;;
53666;SDS011;39568;51.026;5.468;2023-06-22T05:20:10;24.35;;;17.50;;
53666;SDS011;39568;51.026;5.468;2023-06-22T05:22:39;27.42;;;19.60;;
53666;SDS011;39568;51.026;5.468;2023-06-22T05:25:08;26.88;;;20.30;;
53666;SDS011;39568;51.026;5.468;2023-06-22T05:27:37;33.50;;;20.35;;
53666;SDS011;39568;51.026;5.468;2023-06-22T05:30:06;29.85;;;20.92;;
53666;SDS011;39568;51.026;5.468;2023-06-22T05:32:34;31.92;;;21.58;;
53666;SDS011;39568;51.026;5.468;2023-06-22T05:35:01;30.13;;;22.08;;
53666;SDS011;39568;51.026;5.468;2023-06-22T05:37:31;33.35;;;22.10;;
53666;SDS011;39568;51.026;5.468;2023-06-22T05:39:58;33.45;;;22.17;;
53666;SDS011;39568;51.026;5.468;2023-06-22T05:42:29;27.23;;;22.02;;
53666;SDS011;39568;51.026;5.468;2023-06-22T05:44:56;29.67;;;22.73;;
53666;SDS011;39568;51.026;5.468;2023-06-22T05:47:26;30.95;;;21.95;;
53666;SDS011;39568;51.026;5.468;2023-06-22T05:49:57;33.10;;;23.08;;
53666;SDS011;39568;51.026;5.468;2023-06-22T05:52:25;26.85;;;22.05;;
53666;SDS011;39568;51.026;5.468;2023-06-22T05:54:53;30.85;;;21.73;;
53666;SDS011;39568;51.026;5.468;2023-06-22T05:57:20;30.08;;;22.65;;
53666;SDS011;39568;51.026;5.468;2023-06-22T05:59:47;38.63;;;23.35;;
53666;SDS011;39568;51.026;5.468;2023-06-22T06:02:16;34.55;;;24.27;;
53666;SDS011;39568;51.026;5.468;2023-06-22T06:04:43;29.90;;;23.88;;
53666;SDS011;39568;51.026;5.468;2023-06-22T06:07:10;35.47;;;23.15;;
53666;SDS011;39568;51.026;5.468;2023-06-22T06:09:36;32.13;;;24.02;;
53666;SDS011;39568;51.026;5.468;2023-06-22T06:12:05;34.65;;;23.38;;
53666;SDS011;39568;51.026;5.468;2023-06-22T06:14:32;34.35;;;24.33;;
53666;SDS011;39568;51.026;5.468;2023-06-22T06:16:59;33.17;;;24.15;;
53666;SDS011;39568;51.026;5.468;2023-06-22T06:19:27;33.72;;;24.02;;
53666;SDS011;39568;51.026;5.468;2023-06-22T06:21:53;33.83;;;24.33;;
53666;SDS011;39568;51.026;5.468;2023-06-22T06:24:22;43.30;;;25.67;;
53666;SDS011;39568;51.026;5.468;2023-06-22T06:26:52;30.43;;;23.97;;
53666;SDS011;39568;51.026;5.468;2023-06-22T06:29:20;35.30;;;24.13;;
53666;SDS011;39568;51.026;5.468;2023-06-22T06:31:48;37.92;;;25.17;;
53666;SDS011;39568;51.026;5.468;2023-06-22T06:34:17;30.05;;;25.67;;
53666;SDS011;39568;51.026;5.468;2023-06-22T06:36:44;33.00;;;26.83;;
53666;SDS011;39568;51.026;5.468;2023-06-22T06:39:11;37.67;;;28.10;;
53666;SDS011;39568;51.026;5.468;2023-06-22T06:41:38;34.50;;;27.83;;
53666;SDS011;39568;51.026;5.468;2023-06-22T06:44:05;38.30;;;29.05;;
53666;SDS011;39568;51.026;5.468;2023-06-22T06:46:34;37.60;;;30.88;;
53666;SDS011;39568;51.026;5.468;2023-06-22T06:49:00;38.67;;;29.42;;
53666;SDS011;39568;51.026;5.468;2023-06-22T06:51:27;34.72;;;27.27;;
53666;SDS011;39568;51.026;5.468;2023-06-22T06:53:54;41.70;;;29.42;;
53666;SDS011;39568;51.026;5.468;2023-06-22T06:56:21;40.00;;;31.00;;
53666;SDS011;39568;51.026;5.468;2023-06-22T06:58:49;41.70;;;30.13;;
53666;SDS011;39568;51.026;5.468;2023-06-22T07:01:16;44.08;;;32.25;;
53666;SDS011;39568;51.026;5.468;2023-06-22T07:03:46;47.78;;;29.90;;
53666;SDS011;39568;51.026;5.468;2023-06-22T07:06:13;41.08;;;29.20;;
53666;SDS011;39568;51.026;5.468;2023-06-22T07:08:39;41.38;;;31.35;;
53666;SDS011;39568;51.026;5.468;2023-06-22T07:11:09;45.00;;;31.98;;
53666;SDS011;39568;51.026;5.468;2023-06-22T07:13:36;53.53;;;34.13;;
53666;SDS011;39568;51.026;5.468;2023-06-22T07:16:03;41.47;;;30.42;;
53666;SDS011;39568;51.026;5.468;2023-06-22T07:18:30;49.03;;;30.45;;
53666;SDS011;39568;51.026;5.468;2023-06-22T07:21:08;44.45;;;31.70;;
53666;SDS011;39568;51.026;5.468;2023-06-22T07:23:35;43.83;;;29.05;;
53666;SDS011;39568;51.026;5.468;2023-06-22T07:26:02;48.38;;;30.05;;
53666;SDS011;39568;51.026;5.468;2023-06-22T07:28:31;49.85;;;28.95;;
53666;SDS011;39568;51.026;5.468;2023-06-22T07:31:02;38.47;;;27.58;;
53666;SDS011;39568;51.026;5.468;2023-06-22T07:33:29;41.50;;;25.05;;
53666;SDS011;39568;51.026;5.468;2023-06-22T07:35:55;40.97;;;24.10;;
53666;SDS011;39568;51.026;5.468;2023-06-22T07:38:25;40.95;;;23.67;;
53666;SDS011;39568;51.026;5.468;2023-06-22T07:40:53;42.00;;;23.52;;
53666;SDS011;39568;51.026;5.468;2023-06-22T07:43:22;35.50;;;22.65;;
53666;SDS011;39568;51.026;5.468;2023-06-22T07:45:52;40.50;;;24.35;;
53666;SDS011;39568;51.026;5.468;2023-06-22T07:48:20;35.47;;;23.80;;
53666;SDS011;39568;51.026;5.468;2023-06-22T07:50:47;33.35;;;22.60;;
53666;SDS011;39568;51.026;5.468;2023-06-22T07:53:14;37.42;;;21.77;;
53666;SDS011;39568;51.026;5.468;2023-06-22T07:55:42;41.83;;;21.17;;
53666;SDS011;39568;51.026;5.468;2023-06-22T07:58:13;29.60;;;21.77;;
53666;SDS011;39568;51.026;5.468;2023-06-22T08:00:44;31.73;;;21.08;;
53666;SDS011;39568;51.026;5.468;2023-06-22T08:03:10;31.30;;;20.85;;
53666;SDS011;39568;51.026;5.468;2023-06-22T08:05:37;28.83;;;21.92;;
53666;SDS011;39568;51.026;5.468;2023-06-22T08:08:13;30.17;;;22.15;;
53666;SDS011;39568;51.026;5.468;2023-06-22T08:10:41;28.67;;;19.27;;
53666;SDS011;39568;51.026;5.468;2023-06-22T08:13:08;26.30;;;19.77;;
53666;SDS011;39568;51.026;5.468;2023-06-22T08:15:36;29.98;;;21.63;;
53666;SDS011;39568;51.026;5.468;2023-06-22T08:18:03;31.13;;;20.92;;
53666;SDS011;39568;51.026;5.468;2023-06-22T08:20:31;25.92;;;19.70;;
53666;SDS011;39568;51.026;5.468;2023-06-22T08:22:59;24.70;;;20.27;;
53666;SDS011;39568;51.026;5.468;2023-06-22T08:25:31;27.13;;;20.98;;
53666;SDS011;39568;51.026;5.468;2023-06-22T08:27:59;28.75;;;21.08;;
53666;SDS011;39568;51.026;5.468;2023-06-22T08:30:30;31.38;;;19.45;;
53666;SDS011;39568;51.026;5.468;2023-06-22T08:32:57;25.88;;;19.65;;
53666;SDS011;39568;51.026;5.468;2023-06-22T08:35:23;27.15;;;18.38;;
53666;SDS011;39568;51.026;5.468;2023-06-22T08:37:50;26.23;;;18.55;;
53666;SDS011;39568;51.026;5.468;2023-06-22T08:40:20;20.05;;;17.95;;
53666;SDS011;39568;51.026;5.468;2023-06-22T08:42:47;25.50;;;19.85;;
53666;SDS011;39568;51.026;5.468;2023-06-22T08:45:16;28.13;;;18.88;;
53666;SDS011;39568;51.026;5.468;2023-06-22T08:47:43;20.48;;;18.27;;
53666;SDS011;39568;51.026;5.468;2023-06-22T08:50:10;25.63;;;18.13;;
53666;SDS011;39568;51.026;5.468;2023-06-22T08:52:38;20.95;;;18.33;;
53666;SDS011;39568;51.026;5.468;2023-06-22T08:55:08;25.85;;;17.15;;
53666;SDS011;39568;51.026;5.468;2023-06-22T08:57:39;20.65;;;18.15;;
53666;SDS011;39568;51.026;5.468;2023-06-22T09:00:09;23.60;;;17.13;;
53666;SDS011;39568;51.026;5.468;2023-06-22T09:02:47;21.83;;;17.73;;
53666;SDS011;39568;51.026;5.468;2023-06-22T09:05:15;21.80;;;18.67;;
53666;SDS011;39568;51.026;5.468;2023-06-22T09:07:42;24.45;;;18.88;;
53666;SDS011;39568;51.026;5.468;2023-06-22T09:10:09;20.85;;;17.98;;
53666;SDS011;39568;51.026;5.468;2023-06-22T09:12:37;23.80;;;17.90;;
53666;SDS011;39568;51.026;5.468;2023-06-22T09:15:12;26.05;;;19.63;;
53666;SDS011;39568;51.026;5.468;2023-06-22T09:17:40;24.73;;;18.55;;
53666;SDS011;39568;51.026;5.468;2023-06-22T09:20:11;21.23;;;18.75;;
53666;SDS011;39568;51.026;5.468;2023-06-22T09:22:45;31.45;;;20.65;;
53666;SDS011;39568;51.026;5.468;2023-06-22T09:25:11;23.10;;;20.38;;
53666;SDS011;39568;51.026;5.468;2023-06-22T09:27:38;23.90;;;18.98;;
53666;SDS011;39568;51.026;5.468;2023-06-22T09:30:06;25.25;;;20.27;;
53666;SDS011;39568;51.026;5.468;2023-06-22T09:32:36;24.65;;;19.92;;
53666;SDS011;39568;51.026;5.468;2023-06-22T09:35:13;23.52;;;19.30;;
53666;SDS011;39568;51.026;5.468;2023-06-22T09:37:40;26.20;;;19.52;;
53666;SDS011;39568;51.026;5.468;2023-06-22T09:40:08;34.22;;;19.50;;
53666;SDS011;39568;51.026;5.468;2023-06-22T09:42:38;22.52;;;18.23;;
53666;SDS011;39568;51.026;5.468;2023-06-22T09:45:05;23.95;;;19.75;;
53666;SDS011;39568;51.026;5.468;2023-06-22T09:47:32;25.23;;;20.13;;
53666;SDS011;39568;51.026;5.468;2023-06-22T09:49:59;21.50;;;19.10;;
53666;SDS011;39568;51.026;5.468;2023-06-22T09:52:27;30.65;;;19.15;;
53666;SDS011;39568;51.026;5.468;2023-06-22T09:54:55;21.50;;;19.35;;
53666;SDS011;39568;51.026;5.468;2023-06-22T09:57:22;26.70;;;18.48;;
53666;SDS011;39568;51.026;5.468;2023-06-22T09:59:51;22.80;;;20.55;;
53666;SDS011;39568;51.026;5.468;2023-06-22T10:02:18;31.17;;;20.88;;
53666;SDS011;39568;51.026;5.468;2023-06-22T10:04:44;24.33;;;19.40;;
53666;SDS011;39568;51.026;5.468;2023-06-22T10:07:11;24.45;;;19.10;;
53666;SDS011;39568;51.026;5.468;2023-06-22T10:09:44;25.05;;;21.20;;
53666;SDS011;39568;51.026;5.468;2023-06-22T10:12:11;31.60;;;22.40;;
53666;SDS011;39568;51.026;5.468;2023-06-22T10:14:38;29.77;;;22.80;;
53666;SDS011;39568;51.026;5.468;2023-06-22T10:17:07;28.08;;;22.33;;
53666;SDS011;39568;51.026;5.468;2023-06-22T10:19:34;34.08;;;24.55;;
53666;SDS011;39568;51.026;5.468;2023-06-22T10:22:03;50.35;;;28.42;;
53666;SDS011;39568;51.026;5.468;2023-06-22T10:24:32;42.15;;;29.33;;
53666;SDS011;39568;51.026;5.468;2023-06-22T10:27:00;58.78;;;31.27;;
53666;SDS011;39568;51.026;5.468;2023-06-22T10:29:30;51.35;;;34.25;;
53666;SDS011;39568;51.026;5.468;2023-06-22T10:32:00;46.38;;;34.28;;
53666;SDS011;39568;51.026;5.468;2023-06-22T10:34:29;52.10;;;38.35;;
53666;SDS011;39568;51.026;5.468;2023-06-22T10:36:56;50.45;;;36.33;;
53666;SDS011;39568;51.026;5.468;2023-06-22T10:39:22;60.50;;;41.70;;
53666;SDS011;39568;51.026;5.468;2023-06-22T10:41:51;79.40;;;45.15;;
53666;SDS011;39568;51.026;5.468;2023-06-22T10:44:19;60.03;;;41.22;;
53666;SDS011;39568;51.026;5.468;2023-06-22T10:46:52;60.83;;;43.53;;
53666;SDS011;39568;51.026;5.468;2023-06-22T10:49:18;62.92;;;45.08;;
53666;SDS011;39568;51.026;5.468;2023-06-22T10:51:45;67.47;;;43.22;;
53666;SDS011;39568;51.026;5.468;2023-06-22T10:54:12;64.97;;;40.20;;
53666;SDS011;39568;51.026;5.468;2023-06-22T10:56:39;62.85;;;44.10;;
53666;SDS011;39568;51.026;5.468;2023-06-22T10:59:09;71.40;;;45.05;;
53666;SDS011;39568;51.026;5.468;2023-06-22T11:01:37;64.45;;;46.33;;
53666;SDS011;39568;51.026;5.468;2023-06-22T11:04:03;67.60;;;43.95;;
53666;SDS011;39568;51.026;5.468;2023-06-22T11:06:34;57.78;;;44.72;;
53666;SDS011;39568;51.026;5.468;2023-06-22T11:09:03;64.07;;;43.50;;
53666;SDS011;39568;51.026;5.468;2023-06-22T11:11:30;62.13;;;44.75;;
53666;SDS011;39568;51.026;5.468;2023-06-22T11:13:56;55.70;;;43.42;;
53666;SDS011;39568;51.026;5.468;2023-06-22T11:16:23;56.58;;;41.13;;
53666;SDS011;39568;51.026;5.468;2023-06-22T11:18:51;60.88;;;41.15;;
53666;SDS011;39568;51.026;5.468;2023-06-22T11:21:18;51.35;;;38.15;;
53666;SDS011;39568;51.026;5.468;2023-06-22T11:23:45;52.42;;;37.72;;
53666;SDS011;39568;51.026;5.468;2023-06-22T11:26:11;47.10;;;36.30;;
53666;SDS011;39568;51.026;5.468;2023-06-22T11:28:40;49.05;;;35.60;;
53666;SDS011;39568;51.026;5.468;2023-06-22T11:31:06;38.20;;;32.72;;
53666;SDS011;39568;51.026;5.468;2023-06-22T11:33:34;44.70;;;34.90;;
53666;SDS011;39568;51.026;5.468;2023-06-22T11:36:02;39.15;;;31.30;;
53666;SDS011;39568;51.026;5.468;2023-06-22T11:38:29;38.95;;;30.70;;
53666;SDS011;39568;51.026;5.468;2023-06-22T11:40:57;33.88;;;27.30;;
53666;SDS011;39568;51.026;5.468;2023-06-22T11:43:24;37.80;;;29.90;;
53666;SDS011;39568;51.026;5.468;2023-06-22T11:45:51;34.38;;;29.50;;
53666;SDS011;39568;51.026;5.468;2023-06-22T11:48:18;38.42;;;28.55;;
53666;SDS011;39568;51.026;5.468;2023-06-22T11:50:46;33.92;;;28.23;;
53666;SDS011;39568;51.026;5.468;2023-06-22T11:53:16;33.80;;;28.48;;
53666;SDS011;39568;51.026;5.468;2023-06-22T11:55:42;39.35;;;29.33;;
53666;SDS011;39568;51.026;5.468;2023-06-22T11:58:09;35.10;;;26.92;;
53666;SDS011;39568;51.026;5.468;2023-06-22T12:00:42;39.05;;;29.50;;
53666;SDS011;39568;51.026;5.468;2023-06-22T12:03:10;36.47;;;29.35;;
53666;SDS011;39568;51.026;5.468;2023-06-22T12:05:37;38.83;;;28.38;;
53666;SDS011;39568;51.026;5.468;2023-06-22T12:08:04;41.38;;;31.55;;
53666;SDS011;39568;51.026;5.468;2023-06-22T12:10:32;40.72;;;32.67;;
53666;SDS011;39568;51.026;5.468;2023-06-22T12:12:59;39.25;;;33.85;;
53666;SDS011;39568;51.026;5.468;2023-06-22T12:15:29;48.17;;;33.60;;
53666;SDS011;39568;51.026;5.468;2023-06-22T12:17:58;48.70;;;36.42;;
53666;SDS011;39568;51.026;5.468;2023-06-22T12:20:28;47.33;;;35.50;;
53666;SDS011;39568;51.026;5.468;2023-06-22T12:22:57;45.80;;;37.30;;
53666;SDS011;39568;51.026;5.468;2023-06-22T12:25:24;51.70;;;38.83;;
53666;SDS011;39568;51.026;5.468;2023-06-22T12:27:53;54.40;;;40.83;;
53666;SDS011;39568;51.026;5.468;2023-06-22T12:30:24;53.63;;;42.10;;
53666;SDS011;39568;51.026;5.468;2023-06-22T12:32:52;56.90;;;43.33;;
53666;SDS011;39568;51.026;5.468;2023-06-22T12:35:18;55.03;;;43.67;;
53666;SDS011;39568;51.026;5.468;2023-06-22T12:37:45;51.88;;;41.03;;
53666;SDS011;39568;51.026;5.468;2023-06-22T12:40:12;55.05;;;41.55;;
53666;SDS011;39568;51.026;5.468;2023-06-22T12:42:40;58.90;;;42.10;;
53666;SDS011;39568;51.026;5.468;2023-06-22T12:45:10;51.42;;;42.75;;
53666;SDS011;39568;51.026;5.468;2023-06-22T12:47:40;58.83;;;39.42;;
53666;SDS011;39568;51.026;5.468;2023-06-22T12:50:08;63.88;;;44.33;;
53666;SDS011;39568;51.026;5.468;2023-06-22T12:52:36;52.20;;;39.55;;
53666;SDS011;39568;51.026;5.468;2023-06-22T12:55:06;54.15;;;41.45;;
53666;SDS011;39568;51.026;5.468;2023-06-22T12:57:33;48.85;;;38.17;;
53666;SDS011;39568;51.026;5.468;2023-06-22T13:00:00;52.90;;;40.05;;
53666;SDS011;39568;51.026;5.468;2023-06-22T13:02:30;41.10;;;35.47;;
53666;SDS011;39568;51.026;5.468;2023-06-22T13:07:24;48.35;;;36.75;;
53666;SDS011;39568;51.026;5.468;2023-06-22T13:09:51;48.38;;;36.33;;
53666;SDS011;39568;51.026;5.468;2023-06-22T13:12:19;46.63;;;35.65;;
53666;SDS011;39568;51.026;5.468;2023-06-22T13:14:51;45.38;;;34.15;;
53666;SDS011;39568;51.026;5.468;2023-06-22T13:17:22;37.08;;;30.10;;
53666;SDS011;39568;51.026;5.468;2023-06-22T13:19:50;32.95;;;28.77;;
53666;SDS011;39568;51.026;5.468;2023-06-22T13:22:27;37.13;;;28.05;;
53666;SDS011;39568;51.026;5.468;2023-06-22T13:24:57;32.97;;;27.73;;
53666;SDS011;39568;51.026;5.468;2023-06-22T13:27:24;32.53;;;28.13;;
53666;SDS011;39568;51.026;5.468;2023-06-22T13:29:52;32.50;;;27.27;;
53666;SDS011;39568;51.026;5.468;2023-06-22T13:32:19;32.22;;;26.40;;
53666;SDS011;39568;51.026;5.468;2023-06-22T13:34:46;43.80;;;28.48;;
53666;SDS011;39568;51.026;5.468;2023-06-22T13:37:17;39.72;;;29.55;;
53666;SDS011;39568;51.026;5.468;2023-06-22T13:39:44;43.65;;;31.92;;
53666;SDS011;39568;51.026;5.468;2023-06-22T13:42:11;46.85;;;34.88;;
53666;SDS011;39568;51.026;5.468;2023-06-22T13:44:38;43.83;;;33.63;;
53666;SDS011;39568;51.026;5.468;2023-06-22T13:47:05;53.40;;;37.13;;
53666;SDS011;39568;51.026;5.468;2023-06-22T13:49:32;52.67;;;41.17;;
53666;SDS011;39568;51.026;5.468;2023-06-22T13:52:04;58.65;;;37.80;;
53666;SDS011;39568;51.026;5.468;2023-06-22T13:54:36;68.30;;;40.95;;
53666;SDS011;39568;51.026;5.468;2023-06-22T13:57:03;84.28;;;44.78;;
53666;SDS011;39568;51.026;5.468;2023-06-22T13:59:31;75.28;;;43.88;;
53666;SDS011;39568;51.026;5.468;2023-06-22T14:02:04;70.18;;;48.60;;
53666;SDS011;39568;51.026;5.468;2023-06-22T14:04:31;67.93;;;47.53;;
53666;SDS011;39568;51.026;5.468;2023-06-22T14:06:58;71.15;;;45.88;;
53666;SDS011;39568;51.026;5.468;2023-06-22T14:09:25;79.10;;;50.53;;
53666;SDS011;39568;51.026;5.468;2023-06-22T14:11:55;64.40;;;44.33;;
53666;SDS011;39568;51.026;5.468;2023-06-22T14:14:21;67.57;;;49.10;;
53666;SDS011;39568;51.026;5.468;2023-06-22T14:16:49;76.55;;;55.08;;
53666;SDS011;39568;51.026;5.468;2023-06-22T14:19:17;75.70;;;53.80;;
53666;SDS011;39568;51.026;5.468;2023-06-22T14:21:50;65.88;;;44.45;;
53666;SDS011;39568;51.026;5.468;2023-06-22T14:24:17;75.80;;;51.00;;
53666;SDS011;39568;51.026;5.468;2023-06-22T14:26:43;69.25;;;48.35;;
53666;SDS011;39568;51.026;5.468;2023-06-22T14:29:13;70.45;;;49.53;;
53666;SDS011;39568;51.026;5.468;2023-06-22T14:31:45;77.18;;;53.80;;